Latest Weather Observations for Sydney Olympic Park

IDN60901

Issued at 4:31 pm EST Wednesday 8 April 2020 (issued every 10 minutes, with the page automatically refreshed every 10 minutes)

About weather observations | Map of Sydney area stations | Latest observations for Sydney area | Other Formats
Station Details ID: 066212 Name: SYDNEY OLYMPIC PARK AWS (ARCHERY CENTRE) Lat: -33.83 Lon: 151.07 Height: 4.0 m
Data from the previous 72 hours. | See also: Recent months at Sydney Olympic Park
Date/Time
EST
Temp
°C
App
Temp
°C
Dew
Point
°C
Rel
Hum
%
Delta-T
°C
Wind Press
QNH
hPa
Press
MSL
hPa
Rain since
9am
mm
Dir  Spd
km/h
Gust
km/h
Spd
kts
Gust
kts
08/04:30pm 18.5 17.7 14.0 75 2.6 SE 11 17 6 9 - - 0.2
08/04:00pm 18.7 17.6 13.1 70 3.2 SE 11 15 6 8 - - 0.2
08/03:30pm 19.0 17.7 13.6 71 3.1 SSE 13 20 7 11 - - 0.2
08/03:00pm 19.2 17.7 13.2 68 3.4 SSE 13 19 7 10 - - 0.0
08/02:30pm 19.3 17.6 13.5 69 3.3 SE 15 24 8 13 - - 0.0
08/02:00pm 19.1 17.9 14.1 73 2.9 SSE 13 20 7 11 - - 0.0
08/01:30pm 19.1 18.3 14.1 73 2.9 SE 11 17 6 9 - - 0.0
08/01:00pm 19.1 19.2 14.4 74 2.7 SSE 7 11 4 6 - - 0.0
08/12:30pm 18.7 19.0 14.4 76 2.5 SSE 6 9 3 5 - - 0.0
08/12:00pm 18.8 18.5 13.2 70 3.2 S 7 9 4 5 - - 0.0
08/11:30am 18.7 18.7 13.6 72 2.9 SSW 6 9 3 5 - - 0.0
08/11:00am 18.9 20.1 13.7 72 3.0 CALM 0 0 0 0 - - 0.0
08/10:30am 18.6 19.1 14.1 75 2.6 SSE 4 7 2 4 - - 0.0
08/10:00am 17.9 18.9 14.2 79 2.1 ESE 2 6 1 3 - - 0.0
08/09:30am 17.3 17.3 13.6 79 2.1 SE 6 9 3 5 - - 0.0
08/09:00am 17.3 17.2 14.9 86 1.4 SE 9 15 5 8 - - 2.0
08/08:30am 16.6 15.7 14.8 89 1.0 SE 13 20 7 11 - - 2.0
08/08:00am 16.5 15.9 15.7 95 0.5 SE 13 19 7 10 - - 2.0
08/07:30am 16.4 17.0 15.9 97 0.3 SSE 7 13 4 7 - - 2.0
08/07:00am 16.0 16.6 15.8 99 0.1 SSE 7 15 4 8 - - 2.0
08/06:30am 15.7 17.6 15.7 100 0.0 CALM 0 6 0 3 - - 2.0
08/06:00am 14.9 16.4 14.7 99 0.1 CALM 0 0 0 0 - - 2.0
08/05:30am 14.6 16.0 14.4 99 0.1 CALM 0 0 0 0 - - 2.0
08/05:00am 14.8 16.3 14.6 99 0.1 CALM 0 0 0 0 - - 2.0
08/04:30am 14.8 16.3 14.6 99 0.1 CALM 0 0 0 0 - - 2.0
08/04:00am 14.9 16.0 14.7 99 0.1 NW 2 6 1 3 - - 2.0
08/03:30am 15.0 15.8 14.8 99 0.1 WSW 4 6 2 3 - - 2.0
08/03:00am 15.1 16.7 14.9 99 0.1 CALM 0 0 0 0 - - 2.0
08/02:30am 15.4 17.1 15.2 99 0.1 CALM 0 0 0 0 - - 2.0
08/02:00am 15.2 16.8 15.0 99 0.1 CALM 0 0 0 0 - - 2.0
08/01:30am 15.7 17.5 15.5 99 0.1 CALM 0 0 0 0 - - 2.0
08/01:00am 15.8 17.6 15.6 99 0.1 CALM 0 0 0 0 - - 2.0
08/12:30am 15.7 16.4 15.5 99 0.1 SSE 6 11 3 6 - - 2.0
08/12:11am 15.6 15.3 15.4 99 0.1 SSE 11 15 6 8 - - 2.0
08/12:00am 15.7 15.4 15.5 99 0.1 SSE 11 15 6 8 - - 2.0
 
Date/Time
EST
Temp
°C
App
Temp
°C
Dew
Point
°C
Rel
Hum
%
Delta-T
°C
Wind Press
QNH
hPa
Press
MSL
hPa
Rain since
9am
mm
Dir  Spd
km/h
Gust
km/h
Spd
kts
Gust
kts
07/11:30pm 15.6 17.4 15.4 99 0.1 CALM 0 0 0 0 - - 1.6
07/11:15pm 15.5 17.1 15.0 97 0.3 CALM 0 0 0 0 - - 1.0
07/11:00pm 15.9 17.6 15.1 95 0.5 CALM 0 0 0 0 - - 0.4
07/10:30pm 15.4 16.0 14.3 93 0.6 NW 4 9 2 5 - - 0.0
07/10:00pm 15.1 15.4 14.5 96 0.3 WNW 6 7 3 4 - - 0.0
07/09:30pm 14.8 16.1 14.0 95 0.4 CALM 0 0 0 0 - - 0.0
07/09:00pm 15.1 16.2 13.6 91 0.8 CALM 0 0 0 0 - - 0.0
07/08:30pm 15.2 16.2 13.2 88 1.1 CALM 0 0 0 0 - - 0.0
07/08:00pm 15.6 16.5 12.9 84 1.5 CALM 0 0 0 0 - - 0.0
07/07:30pm 16.3 17.4 13.4 83 1.6 CALM 0 0 0 0 - - 0.0
07/07:00pm 16.9 17.5 11.8 72 2.8 CALM 0 6 0 3 - - 0.0
07/06:30pm 17.6 17.2 12.3 71 2.9 SSE 6 7 3 4 - - 0.0
07/06:00pm 18.0 17.4 12.2 69 3.2 SE 7 11 4 6 - - 0.0
07/05:30pm 18.4 17.9 12.6 69 3.2 SE 7 13 4 7 - - 0.0
07/05:00pm 18.8 17.1 12.3 66 3.6 SE 13 17 7 9 - - 0.0
07/04:30pm 19.4 17.4 11.4 60 4.4 SE 13 19 7 10 - - 0.0
07/04:00pm 19.4 17.4 11.4 60 4.4 SSE 13 15 7 8 - - 0.0
07/03:30pm 20.0 18.3 12.3 61 4.3 SE 13 20 7 11 - - 0.0
07/03:00pm 20.5 18.8 12.5 60 4.5 SE 13 19 7 10 - - 0.0
07/02:30pm 19.9 17.7 10.9 56 4.9 SSE 13 20 7 11 - - 0.0
07/02:00pm 20.1 17.5 12.1 60 4.5 SE 17 28 9 15 - - 0.0
07/01:30pm 20.0 18.5 11.8 59 4.5 SE 11 19 6 10 - - 0.0
07/01:00pm 19.7 17.8 11.7 60 4.4 SE 13 19 7 10 - - 0.0
07/12:30pm 20.1 17.8 11.6 58 4.7 SE 15 22 8 12 - - 0.0
07/12:00pm 19.9 18.3 12.7 63 4.1 SSE 13 20 7 11 - - 0.0
07/11:30am 19.7 17.3 12.5 63 4.0 SSE 17 24 9 13 - - 0.0
07/11:00am 19.8 17.6 12.1 61 4.3 SSE 15 26 8 14 - - 0.0
07/10:30am 20.0 18.6 13.5 66 3.7 SSE 13 19 7 10 - - 0.0
07/10:00am 18.9 16.7 12.2 65 3.7 SSE 15 20 8 11 - - 0.0
07/09:30am 18.7 18.8 12.7 68 3.4 SSW 4 11 2 6 - - 0.0
07/09:00am 18.1 17.5 12.3 69 3.2 SW 7 11 4 6 - - 0.0
07/08:30am 17.8 16.4 12.3 70 3.0 SSW 11 20 6 11 - - 0.0
07/08:00am 17.3 17.3 12.4 73 2.7 W 4 11 2 6 - - 0.0
07/07:30am 16.5 16.1 12.3 76 2.3 W 6 13 3 7 - - 0.0
07/07:00am 16.2 16.0 12.9 81 1.8 WNW 6 9 3 5 - - 0.0
07/06:30am 16.0 16.5 12.9 82 1.7 W 2 9 1 5 - - 0.0
07/06:00am 15.9 16.5 13.2 84 1.5 W 2 9 1 5 - - 0.0
07/05:30am 16.0 16.6 13.1 83 1.6 W 2 7 1 4 - - 0.0
07/05:00am 16.2 16.7 12.9 81 1.8 WSW 2 7 1 4 - - 0.0
07/04:30am 16.2 16.0 13.1 82 1.7 WNW 6 11 3 6 - - 0.0
07/04:00am 16.3 16.5 13.2 82 1.7 WNW 4 7 2 4 - - 0.0
07/03:30am 16.4 16.7 13.3 82 1.7 WSW 4 11 2 6 - - 0.0
07/03:00am 16.4 16.6 12.9 80 1.9 SSW 4 7 2 4 - - 0.0
07/02:30am 16.4 16.6 12.9 80 1.9 SSW 4 9 2 5 - - 0.0
07/02:00am 16.3 15.8 12.8 80 1.9 SE 7 11 4 6 - - 0.0
07/01:30am 16.5 15.7 13.0 80 1.9 SSE 9 15 5 8 - - 0.0
07/01:00am 16.9 16.2 14.2 84 1.5 S 11 19 6 10 - - 0.0
07/12:30am 16.8 16.5 14.4 86 1.4 S 9 15 5 8 - - 0.0
07/12:00am 16.6 16.3 14.4 87 1.3 SSE 9 15 5 8 - - 0.0
 
Date/Time
EST
Temp
°C
App
Temp
°C
Dew
Point
°C
Rel
Hum
%
Delta-T
°C
Wind Press
QNH
hPa
Press
MSL
hPa
Rain since
9am
mm
Dir  Spd
km/h
Gust
km/h
Spd
kts
Gust
kts
06/11:30pm 16.9 15.0 14.2 84 1.5 SSE 17 24 9 13 - - 0.0
06/11:00pm 17.2 16.7 13.9 81 1.9 SSW 9 17 5 9 - - 0.0
06/10:30pm 16.9 17.0 14.0 83 1.6 SW 6 11 3 6 - - 0.0
06/10:00pm 17.1 17.4 14.6 85 1.4 W 6 11 3 6 - - 0.0
06/09:30pm 16.5 17.6 13.6 83 1.6 CALM 0 0 0 0 - - 0.0
06/09:00pm 17.2 17.1 13.9 81 1.9 SE 7 13 4 7 - - 0.0
06/08:30pm 17.8 16.6 14.1 79 2.1 SSE 13 24 7 13 - - 0.0
06/08:00pm 17.5 17.1 14.0 80 2.0 SE 9 13 5 7 - - 0.0
06/07:30pm 17.3 17.2 14.0 81 1.9 SE 7 13 4 7 - - 0.0
06/07:00pm 17.7 17.3 14.0 79 2.1 ESE 9 11 5 6 - - 0.0
06/06:30pm 18.2 16.8 14.5 79 2.1 SE 15 28 8 15 - - 0.0
06/06:00pm 18.3 16.5 14.4 78 2.2 SE 17 24 9 13 - - 0.0
06/05:30pm 18.5 16.7 14.4 77 2.4 SE 17 24 9 13 - - 0.0
06/05:00pm 18.9 17.2 14.8 77 2.4 ESE 17 26 9 14 - - 0.0
06/04:30pm 19.3 17.1 14.8 75 2.6 SE 20 30 11 16 - - 0.0
06/04:00pm 20.2 18.3 14.1 68 3.5 ESE 17 26 9 14 - - 0.0
06/03:30pm 20.7 19.3 14.6 68 3.6 SE 15 20 8 11 - - 0.0
06/03:00pm 21.4 19.7 13.6 61 4.5 SE 15 26 8 14 - - 0.0
06/02:30pm 23.2 20.8 9.9 43 7.2 SSW 13 20 7 11 - - 0.0
06/02:00pm 24.1 21.9 10.7 43 7.4 SSW 13 22 7 12 - - 0.0
06/01:30pm 24.1 22.3 10.7 43 7.4 SSW 11 22 6 12 - - 0.0
06/01:00pm 23.7 21.4 10.4 43 7.3 SW 13 19 7 10 - - 0.0
06/12:30pm 22.5 20.6 10.6 47 6.5 SW 11 20 6 11 - - 0.0
06/12:00pm 23.0 20.8 10.8 46 6.7 W 13 22 7 12 - - 0.0
06/11:30am 22.2 20.1 11.0 49 6.2 SW 13 26 7 14 - - 0.0
06/11:00am 21.8 20.5 11.2 51 5.9 SW 9 20 5 11 - - 0.0
06/10:30am 21.1 19.1 10.3 50 5.9 WSW 11 19 6 10 - - 0.0
06/10:00am 20.7 19.1 10.2 51 5.7 SW 9 15 5 8 - - 0.0
06/09:30am 20.1 18.4 9.7 51 5.6 W 9 15 5 8 - - 0.0
06/09:00am 20.3 19.7 10.4 53 5.4 NW 4 11 2 6 - - 0.0
06/08:30am 18.8 17.8 10.9 60 4.3 NW 7 11 4 6 - - 0.0
06/08:00am 17.6 16.7 11.2 66 3.5 NW 7 13 4 7 - - 0.0
06/07:30am 15.2 15.0 10.6 74 2.4 WSW 2 9 1 5 - - 0.0
06/07:00am 12.9 12.9 11.3 90 0.8 SW 2 7 1 4 - - 0.0
06/06:30am 12.1 11.9 10.5 90 0.8 SSW 2 7 1 4 - - 0.0
06/06:00am 12.3 12.5 10.4 88 1.0 CALM 0 0 0 0 - - 0.0
06/05:30am 12.7 12.4 10.1 84 1.3 WNW 2 6 1 3 - - 0.0
06/05:00am 12.8 12.6 10.3 85 1.3 NW 2 7 1 4 - - 0.0
06/04:30am 12.4 12.5 10.0 85 1.2 CALM 0 7 0 4 - - 0.0
06/04:00am 12.5 11.9 9.1 80 1.7 NW 2 6 1 3 - - 0.0
06/03:30am 13.3 12.4 9.4 77 2.0 NNW 4 6 2 3 - - 0.0
06/03:00am 14.4 12.9 8.4 67 3.0 NW 6 9 3 5 - - 0.0
06/02:30am 14.2 12.3 9.2 72 2.5 NW 9 15 5 8 - - 0.0
06/02:00am 12.7 11.4 10.1 84 1.3 NW 7 11 4 6 - - 0.0
06/01:30am 12.2 11.1 10.8 91 0.7 NW 7 11 4 6 - - 0.0
06/01:00am 12.3 11.2 10.5 89 0.9 NW 7 9 4 5 - - 0.0
06/12:30am 12.2 11.9 10.1 87 1.1 NW 2 7 1 4 - - 0.0
06/12:00am 12.9 13.0 10.1 83 1.4 CALM 0 0 0 0 - - 0.0
 
Date/Time
EST
Temp
°C
App
Temp
°C
Dew
Point
°C
Rel
Hum
%
Delta-T
°C
Wind Press
QNH
hPa
Press
MSL
hPa
Rain since
9am
mm
Dir  Spd
km/h
Gust
km/h
Spd
kts
Gust
kts
05/11:30pm 13.2 13.1 9.5 78 1.9 CALM 0 0 0 0 - - 0.0
05/11:00pm 14.0 14.2 10.4 79 1.9 CALM 0 0 0 0 - - 0.0
05/10:30pm 14.7 14.5 9.1 69 2.9 CALM 0 0 0 0 - - 0.0
05/10:00pm 15.9 14.3 8.2 60 3.9 NW 6 9 3 5 - - 0.0
05/09:30pm 16.1 14.4 8.3 60 4.0 WNW 7 13 4 7 - - 0.0
05/09:00pm 17.3 15.7 8.2 55 4.6 WNW 6 11 3 6 - - 0.0
05/08:30pm 17.7 15.7 8.6 55 4.7 WNW 9 15 5 8 - - 0.0
05/08:00pm 18.5 16.4 8.2 51 5.3 WNW 9 13 5 7 - - 0.0
05/07:30pm 18.5 16.5 8.5 52 5.2 WNW 9 15 5 8 - - 0.0
05/07:00pm 19.1 17.0 8.1 49 5.7 WNW 9 20 5 11 - - 0.0
05/06:30pm 20.1 16.7 7.8 45 6.3 WNW 15 26 8 14 - - 0.0
05/06:00pm 20.5 17.9 7.8 44 6.6 WNW 11 20 6 11 - - 0.0
05/05:30pm 21.4 18.9 8.0 42 7.0 WNW 11 19 6 10 - - 0.0
05/05:00pm 22.7 19.8 8.0 39 7.7 WNW 13 20 7 11 - - 0.0

Latest Capital City Observations: Canberra | Sydney | Melbourne | Brisbane | Adelaide | Perth | Hobart | Darwin

Other formats

Comma delimited format used in spreadsheet applications
http://www.bom.gov.au/fwo/IDN60901/IDN60901.95765.axf

JavaScript Object Notation format (JSON) in row-major order
http://www.bom.gov.au/fwo/IDN60901/IDN60901.95765.json

Data quality

Most of these data are generated automatically and are frequently updated. Quality checks on data are not normally performed. It is possible for incorrect values to appear. Refer to information at About Latest Weather Observations and please check the disclaimer before using these data.